Time;durP1;ratioP1;P1;durP2;ratioP2;P2;SDS_P1;SDS_P2;PMS_P1;PMS_P2;Temp;Humidity;BMP_temperature;BMP_pressure;BME280_temperature;BME280_humidity;BME280_pressure;Samples;Min_cycle;Max_cycle;Signal;HPM_P1;HPM_P2
2022/07/15 00:00:04;;;;;;;1.00;0.93;;;;;;;13.01;85.14;101338.03;4916761;28;21039;-86
2022/07/15 00:02:31;;;;;;;2.30;1.15;;;;;;;12.96;85.52;101343.34;4924071;28;20536;-86
2022/07/15 00:04:57;;;;;;;2.30;1.00;;;;;;;12.91;85.74;101334.63;4930629;28;20047;-86
2022/07/15 00:07:24;;;;;;;1.05;0.90;;;;;;;12.86;86.63;101334.66;4918407;28;20633;-84
2022/07/15 00:12:35;;;;;;;;;;;;;;;12.82;87.92;101334.72;4938483;28;20035;-84
2022/07/15 00:15:02;;;;;;;4.93;1.75;;;;;;;12.79;87.69;101337.34;4919279;28;20042;-85
2022/07/15 00:17:28;;;;;;;2.13;1.42;;;;;;;12.75;87.59;101333.88;4935851;28;20043;-84
2022/07/15 00:19:55;;;;;;;3.17;1.20;;;;;;;12.72;88.39;101336.50;4922148;28;20556;-86
2022/07/15 00:22:23;;;;;;;1.33;1.02;;;;;;;12.75;88.28;101333.88;4950307;28;20043;-86
2022/07/15 00:24:49;;;;;;;6.00;1.55;;;;;;;12.75;88.15;101339.13;4914365;28;20090;-85
2022/07/15 00:27:16;;;;;;;3.30;1.17;;;;;;;12.75;88.06;101333.88;4935714;28;20134;-86
2022/07/15 00:29:43;;;;;;;2.88;1.17;;;;;;;12.74;87.94;101326.88;4923296;28;20059;-85
2022/07/15 00:32:10;;;;;;;3.25;1.60;;;;;;;12.78;87.87;101327.75;4922981;28;20050;-83
2022/07/15 00:34:36;;;;;;;3.13;1.08;;;;;;;12.83;87.57;101325.94;4934047;28;20098;-84
2022/07/15 00:37:04;;;;;;;5.13;1.27;;;;;;;12.88;86.57;101324.13;4954658;28;20062;-85
2022/07/15 00:39:31;;;;;;;4.75;1.15;;;;;;;12.91;86.44;101326.75;4930748;28;20047;-86
2022/07/15 00:41:58;;;;;;;4.40;1.33;;;;;;;12.91;86.23;101329.38;4915658;28;20055;-86
2022/07/15 00:44:25;;;;;;;6.57;1.10;;;;;;;12.87;86.11;101325.91;4932335;28;20047;-85
2022/07/15 00:46:54;;;;;;;3.28;1.42;;;;;;;12.87;85.93;101322.41;4937499;28;20055;-86
2022/07/15 00:49:21;;;;;;;2.35;1.25;;;;;;;12.93;85.82;101329.38;4913850;28;20093;-85
2022/07/15 00:51:52;;;;;;;4.18;1.33;;;;;;;13.01;85.44;101324.91;4935276;28;20090;-86
2022/07/15 00:54:26;;;;;;;4.15;1.20;;;;;;;13.13;84.64;101329.19;4936609;28;20127;-85
2022/07/15 00:56:57;;;;;;;3.13;0.80;;;;;;;13.20;83.93;101328.25;4941179;28;20059;-85
2022/07/15 00:59:31;;;;;;;1.13;0.98;;;;;;;13.26;83.32;101322.94;4926231;28;20051;-85
2022/07/15 01:01:57;;;;;;;;;;;;;;;13.33;82.89;101322.00;4931270;28;20062;-84
2022/07/15 01:04:25;;;;;;;3.58;1.20;;;;;;;13.34;82.06;101329.00;4918556;28;20175;-85
2022/07/15 01:06:51;;;;;;;4.63;1.35;;;;;;;13.37;82.24;101326.38;4938576;28;20044;-82
2022/07/15 01:09:20;;;;;;;5.93;1.05;;;;;;;13.37;81.68;101322.88;4934430;28;20042;-86
2022/07/15 01:11:49;;;;;;;5.18;1.30;;;;;;;13.38;81.61;101316.72;4935954;28;20051;-85
2022/07/15 01:14:16;;;;;;;4.38;1.10;;;;;;;13.34;81.71;101321.13;4917055;28;20054;-85
2022/07/15 01:16:43;;;;;;;4.85;1.20;;;;;;;13.31;81.88;101322.91;4920843;28;20122;-83
2022/07/15 01:19:10;;;;;;;2.80;0.93;;;;;;;13.24;81.79;101322.09;4937734;28;20109;-84
2022/07/15 01:21:37;;;;;;;5.50;1.00;;;;;;;13.17;82.22;101325.66;4918661;28;20050;-84
2022/07/15 01:24:03;;;;;;;5.38;0.90;;;;;;;13.10;82.64;101327.44;4916963;28;20423;-84
2022/07/15 01:26:30;;;;;;;3.50;0.80;;;;;;;13.04;82.77;101320.50;4934921;28;20054;-85
2022/07/15 01:28:57;;;;;;;10.15;1.13;;;;;;;13.00;83.20;101325.81;4920215;28;20078;-84
2022/07/15 01:31:24;;;;;;;2.47;0.80;;;;;;;12.95;83.53;101322.34;4936841;28;20240;-84
2022/07/15 01:33:54;;;;;;;2.80;1.10;;;;;;;12.97;83.59;101329.34;4934960;28;20532;-85
2022/07/15 01:36:21;;;;;;;2.55;1.08;;;;;;;13.00;83.68;101331.06;4935751;28;20518;-86
2022/07/15 01:38:48;;;;;;;2.17;1.30;;;;;;;12.97;83.81;101328.44;4921151;28;20048;-84
2022/07/15 01:41:15;;;;;;;2.83;1.00;;;;;;;12.98;83.72;101338.09;4920263;28;20055;-85
2022/07/15 01:43:42;;;;;;;5.00;1.25;;;;;;;13.00;83.62;101341.59;4913959;28;20662;-85
2022/07/15 01:46:08;;;;;;;1.13;0.80;;;;;;;13.00;83.55;101337.19;4920536;28;20127;-85
2022/07/15 01:51:19;;;;;;;;;;;;;;;12.91;84.62;101342.53;4935541;28;20035;-85
2022/07/15 01:53:46;;;;;;;3.55;0.98;;;;;;;12.82;84.26;101348.72;4922450;29;19936;-85
2022/07/15 01:56:12;;;;;;;4.70;1.02;;;;;;;12.73;85.21;101354.88;4923359;29;21035;-85
2022/07/15 01:58:39;;;;;;;4.57;1.13;;;;;;;12.69;86.15;101358.44;4910286;29;20040;-85
2022/07/15 02:01:07;;;;;;;5.93;1.27;;;;;;;12.69;86.27;101358.44;4943431;28;20066;-84
2022/07/15 02:03:34;;;;;;;2.58;0.93;;;;;;;12.71;86.92;101361.03;4924348;29;20062;-82
2022/07/15 02:06:05;;;;;;;6.05;1.90;;;;;;;12.76;87.41;101354.00;4905980;29;20078;-86
2022/07/15 02:08:32;;;;;;;5.07;1.00;;;;;;;12.80;86.97;101360.09;4922698;29;20122;-85
2022/07/15 02:11:01;;;;;;;3.25;1.10;;;;;;;12.80;86.96;101352.22;4909048;29;20047;-84
2022/07/15 02:13:28;;;;;;;4.13;1.13;;;;;;;12.77;87.20;101350.50;4909062;29;20451;-85
2022/07/15 02:15:56;;;;;;;4.38;1.40;;;;;;;12.67;87.62;101354.94;4909312;29;20047;-85
2022/07/15 02:18:23;;;;;;;1.90;1.00;;;;;;;12.54;87.94;101354.16;4909598;29;20102;-84
2022/07/15 02:20:49;;;;;;;2.85;1.92;;;;;;;12.47;89.33;101356.81;4912309;29;20268;-85
2022/07/15 02:23:16;;;;;;;5.75;1.45;;;;;;;12.35;89.56;101357.75;4909812;29;20051;-84
2022/07/15 02:25:43;;;;;;;3.05;1.23;;;;;;;12.23;90.01;101359.56;4924675;29;20063;-85
2022/07/15 02:28:09;;;;;;;4.22;1.90;;;;;;;12.10;91.26;101357.88;4910923;29;20059;-84
2022/07/15 02:30:40;;;;;;;3.83;1.60;;;;;;;11.96;91.53;101360.53;4913230;29;20059;-85
2022/07/15 02:33:08;;;;;;;4.10;1.15;;;;;;;11.90;92.55;101364.03;4928506;29;20789;-85
2022/07/15 02:35:38;;;;;;;6.30;1.75;;;;;;;11.84;93.21;101364.03;4924604;29;20774;-84
2022/07/15 02:38:06;;;;;;;3.20;1.63;;;;;;;11.77;93.49;101359.66;4909579;29;20748;-86
2022/07/15 02:40:34;;;;;;;3.95;1.42;;;;;;;11.70;94.44;101366.69;4928702;29;20102;-85
2022/07/15 02:43:04;;;;;;;5.70;1.67;;;;;;;11.65;94.70;101364.97;4924289;29;20621;-84
2022/07/15 02:45:35;;;;;;;2.53;1.58;;;;;;;11.58;94.61;101372.81;4907975;29;20044;-87
2022/07/15 02:48:02;;;;;;;1.88;1.33;;;;;;;11.53;95.40;101376.34;4912879;29;20047;-85
2022/07/15 02:50:30;;;;;;;7.95;1.52;;;;;;;11.47;95.24;101374.63;4925086;28;20055;-84
2022/07/15 02:52:57;;;;;;;4.15;1.50;;;;;;;11.43;96.17;101380.72;4928337;28;20062;-86
2022/07/15 02:55:23;;;;;;;5.63;1.92;;;;;;;11.40;96.37;101380.72;4909671;28;20243;-85
2022/07/15 02:57:50;;;;;;;3.40;1.45;;;;;;;11.38;96.62;101388.59;4915938;28;20169;-85
2022/07/15 03:00:19;;;;;;;4.97;2.22;;;;;;;11.36;96.98;101381.59;4935229;28;20046;-85
2022/07/15 03:02:47;;;;;;;3.65;1.27;;;;;;;11.31;96.63;101380.72;4934048;28;20135;-88
2022/07/15 03:05:14;;;;;;;3.05;2.10;;;;;;;11.28;97.54;101378.97;4932403;28;20242;-85
2022/07/15 03:07:41;;;;;;;6.25;1.58;;;;;;;11.27;97.42;101382.47;4936406;28;20133;-85
2022/07/15 03:10:10;;;;;;;2.42;1.25;;;;;;;11.24;97.68;101383.34;4925489;28;20051;-86
2022/07/15 03:12:37;;;;;;;3.80;1.23;;;;;;;11.22;97.65;101381.59;4907936;28;20135;-86
2022/07/15 03:15:06;;;;;;;6.82;1.73;;;;;;;11.24;98.00;101387.72;4944678;28;20066;-85
2022/07/15 03:17:33;;;;;;;4.95;1.83;;;;;;;11.19;97.81;101387.72;4934228;28;20047;-85
2022/07/15 03:19:59;;;;;;;10.20;2.20;;;;;;;11.17;98.10;101386.84;4910823;28;20057;-84
2022/07/15 03:22:27;;;;;;;7.50;1.65;;;;;;;11.15;97.81;101388.59;4917554;28;20150;-86
2022/07/15 03:24:54;;;;;;;7.88;1.55;;;;;;;11.13;98.85;101385.09;4913924;28;20066;-84
2022/07/15 03:27:20;;;;;;;4.57;1.30;;;;;;;11.11;98.69;101391.19;4932898;28;20143;-85
2022/07/15 03:29:47;;;;;;;3.53;1.58;;;;;;;11.10;99.23;101392.94;4918407;28;20235;-83
2022/07/15 03:32:15;;;;;;;8.57;1.63;;;;;;;11.08;99.56;101392.94;4926530;28;20063;-84
2022/07/15 03:34:43;;;;;;;11.18;1.98;;;;;;;11.07;99.10;101398.19;4924947;28;20050;-83
2022/07/15 03:37:11;;;;;;;6.88;1.75;;;;;;;11.08;99.92;101392.94;4917470;28;20053;-84
2022/07/15 03:39:38;;;;;;;8.27;1.65;;;;;;;11.13;99.77;101390.31;4915522;28;20146;-85
2022/07/15 03:42:04;;;;;;;6.97;2.35;;;;;;;11.16;98.99;101392.06;4917177;28;20134;-85
2022/07/15 03:44:31;;;;;;;3.97;1.40;;;;;;;11.23;99.08;101392.06;4949077;28;20127;-85
2022/07/15 03:46:58;;;;;;;7.03;2.25;;;;;;;11.34;98.93;101392.09;4915417;28;20053;-86
2022/07/15 03:49:24;;;;;;;4.97;1.98;;;;;;;11.50;98.36;101399.94;4932671;28;20496;-85
2022/07/15 03:51:51;;;;;;;3.53;2.15;;;;;;;11.67;96.87;101392.06;4916549;28;20474;-85
2022/07/15 03:54:18;;;;;;;6.63;1.92;;;;;;;11.86;96.08;101387.63;4928290;28;20046;-84
2022/07/15 03:56:47;;;;;;;5.05;1.88;;;;;;;11.99;94.48;101393.75;4911255;28;20047;-86
2022/07/15 03:59:18;;;;;;;4.47;1.50;;;;;;;12.05;93.86;101391.13;4929981;28;20051;-87
2022/07/15 04:01:48;;;;;;;4.82;1.88;;;;;;;12.14;93.59;101382.34;4917981;28;20043;-84
2022/07/15 04:04:16;;;;;;;4.45;2.08;;;;;;;12.24;92.83;101386.66;4914640;28;20154;-86
2022/07/15 04:06:43;;;;;;;2.58;1.95;;;;;;;12.35;92.33;101395.38;4935355;28;20042;-84
2022/07/15 04:09:10;;;;;;;3.75;2.17;;;;;;;12.46;91.29;101384.81;4935417;28;20039;-86
2022/07/15 04:11:41;;;;;;;8.73;1.70;;;;;;;12.57;90.74;101397.91;4918178;28;20047;-84
2022/07/15 04:14:11;;;;;;;4.97;1.80;;;;;;;12.61;89.60;101399.63;4936156;28;20078;-85
2022/07/15 04:16:37;;;;;;;4.43;1.52;;;;;;;12.61;89.59;101394.38;4921396;28;20167;-86
2022/07/15 04:19:07;;;;;;;6.13;2.58;;;;;;;12.66;88.97;101403.09;4922656;28;20058;-87
2022/07/15 04:21:34;;;;;;;8.48;1.95;;;;;;;12.67;88.73;101403.97;4918528;28;20043;-86
2022/07/15 04:24:01;;;;;;;4.72;1.73;;;;;;;12.63;88.79;101405.72;4934263;28;20051;-84
2022/07/15 04:26:28;;;;;;;5.45;1.90;;;;;;;12.69;88.72;101402.22;4921522;28;20055;-83
2022/07/15 04:28:56;;;;;;;5.78;1.63;;;;;;;12.77;88.21;101405.66;4923054;28;20043;-86
2022/07/15 04:31:23;;;;;;;5.40;1.67;;;;;;;12.84;87.56;101414.38;4936831;28;20431;-84
2022/07/15 04:33:50;;;;;;;9.48;2.83;;;;;;;12.85;87.25;101414.41;4920887;28;20043;-85
2022/07/15 04:36:17;;;;;;;9.32;1.70;;;;;;;12.90;86.97;101415.22;4935855;28;20454;-83
2022/07/15 04:38:44;;;;;;;6.75;2.03;;;;;;;12.87;86.73;101411.75;4940191;28;20047;-85
2022/07/15 04:41:11;;;;;;;2.63;1.92;;;;;;;12.96;86.57;101416.94;4919874;28;20051;-86
2022/07/15 04:43:37;;;;;;;4.63;1.52;;;;;;;13.03;86.61;101410.75;4935950;28;20087;-84
2022/07/15 04:46:04;;;;;;;3.35;1.50;;;;;;;13.10;85.47;101415.97;4939350;28;20059;-86
2022/07/15 04:51:15;;;;;;;3.15;1.27;;;;;;;13.23;84.54;101412.34;4919052;28;20038;-85
2022/07/15 04:53:42;;;;;;;2.38;1.15;;;;;;;13.27;83.94;101418.47;4919583;28;20458;-86
2022/07/15 04:56:09;;;;;;;7.95;2.03;;;;;;;13.24;84.09;101414.09;4924251;28;20671;-87
2022/07/15 04:58:36;;;;;;;6.55;1.45;;;;;;;13.30;84.04;101415.84;4918086;28;20054;-85
2022/07/15 05:01:03;;;;;;;10.73;1.70;;;;;;;13.39;83.66;101429.78;4944967;28;20120;-85
2022/07/15 05:03:31;;;;;;;5.78;1.60;;;;;;;13.43;83.41;101424.50;4939718;28;20073;-86
2022/07/15 05:05:57;;;;;;;8.35;1.95;;;;;;;13.51;82.93;101426.19;4938568;28;20418;-85
2022/07/15 05:08:24;;;;;;;7.93;3.83;;;;;;;13.59;82.91;101427.88;4938967;28;20047;-84
2022/07/15 05:10:51;;;;;;;14.68;5.18;;;;;;;13.67;82.05;101433.94;4936460;28;20110;-83
2022/07/15 05:13:18;;;;;;;11.43;4.15;;;;;;;13.66;81.55;101427.81;4956767;28;20066;-86
2022/07/15 05:15:45;;;;;;;14.48;3.88;;;;;;;13.72;81.73;101430.38;4939612;28;20055;-85
2022/07/15 05:18:11;;;;;;;12.15;3.45;;;;;;;13.79;81.32;101432.94;4937208;28;20102;-83
2022/07/15 05:20:38;;;;;;;12.13;2.63;;;;;;;13.82;81.05;101431.16;4936567;28;20074;-84
2022/07/15 05:23:05;;;;;;;4.57;2.97;;;;;;;13.87;80.96;101439.00;4914391;28;20055;-84
2022/07/15 05:25:31;;;;;;;8.02;2.90;;;;;;;13.90;81.13;101439.00;4936238;28;20047;-85
2022/07/15 05:27:58;;;;;;;15.77;4.93;;;;;;;13.95;80.84;101442.44;4955715;28;20051;-83
2022/07/15 05:30:24;;;;;;;9.57;3.40;;;;;;;14.06;80.61;101448.44;4924073;28;20059;-84
2022/07/15 05:32:51;;;;;;;11.68;4.45;;;;;;;14.12;80.16;101444.91;4923347;28;20054;-85
2022/07/15 05:35:21;;;;;;;11.70;4.43;;;;;;;14.19;79.88;101445.69;4937787;29;20043;-86
2022/07/15 05:37:47;;;;;;;8.50;3.20;;;;;;;14.24;79.45;101435.97;4937313;28;20058;-85
2022/07/15 05:40:15;;;;;;;8.73;3.05;;;;;;;14.31;78.69;101444.69;4916692;28;20039;-85
2022/07/15 05:42:42;;;;;;;4.20;1.73;;;;;;;14.34;78.94;101440.25;4935820;28;20058;-84
2022/07/15 05:45:13;;;;;;;6.75;2.20;;;;;;;14.39;78.64;101433.16;4939407;28;20047;-85
2022/07/15 05:47:39;;;;;;;4.55;1.98;;;;;;;14.43;78.36;101434.00;4933905;28;20063;-83
2022/07/15 05:50:07;;;;;;;6.22;1.60;;;;;;;14.48;77.95;101447.09;4920192;28;20043;-87
2022/07/15 05:52:37;;;;;;;5.18;1.80;;;;;;;14.50;78.04;101442.72;4937848;28;20058;-85
2022/07/15 05:55:06;;;;;;;4.07;1.70;;;;;;;14.61;77.77;101439.94;4912507;28;20908;-84
2022/07/15 05:57:33;;;;;;;6.70;2.28;;;;;;;14.75;77.31;101448.53;4916618;28;20461;-86
2022/07/15 06:00:00;;;;;;;6.65;2.30;;;;;;;14.86;76.63;101449.28;4912246;28;20042;-84
2022/07/15 06:02:28;;;;;;;10.52;1.80;;;;;;;14.95;76.16;101450.88;4931824;28;20203;-86
2022/07/15 06:04:55;;;;;;;3.83;1.52;;;;;;;15.05;75.35;101446.38;4930878;28;20185;-84
2022/07/15 06:07:22;;;;;;;5.32;3.17;;;;;;;15.05;75.19;101447.22;4919602;28;20051;-88
2022/07/15 06:09:50;;;;;;;5.15;1.50;;;;;;;15.09;74.80;101450.69;4918248;28;20044;-85
2022/07/15 06:12:18;;;;;;;9.90;1.48;;;;;;;15.13;75.09;101452.38;4934032;28;20111;-85
2022/07/15 06:14:45;;;;;;;10.10;2.38;;;;;;;15.25;74.43;101456.59;4934516;28;20047;-86
2022/07/15 06:17:11;;;;;;;6.78;1.90;;;;;;;15.38;72.87;101454.66;4934147;28;20398;-82
2022/07/15 06:19:38;;;;;;;3.97;1.40;;;;;;;15.44;72.76;101456.34;4908475;28;20039;-86
2022/07/15 06:22:06;;;;;;;3.83;1.58;;;;;;;15.45;72.48;101458.06;4932826;28;20102;-86
2022/07/15 06:24:32;;;;;;;10.75;2.72;;;;;;;15.59;72.47;101456.09;4911729;28;20418;-86
2022/07/15 06:26:59;;;;;;;9.77;1.75;;;;;;;15.80;71.79;101465.38;4934427;28;20071;-85
2022/07/15 06:29:26;;;;;;;6.28;1.48;;;;;;;15.99;70.58;101460.66;4918446;28;20047;-84
2022/07/15 06:31:53;;;;;;;6.47;1.45;;;;;;;16.12;69.88;101466.59;4937111;28;20054;-82
2022/07/15 06:34:19;;;;;;;5.25;1.75;;;;;;;16.17;69.27;101474.44;4939693;28;20162;-84
2022/07/15 06:36:50;;;;;;;2.38;1.10;;;;;;;16.15;68.66;101460.38;4941380;28;20081;-86
2022/07/15 06:39:16;;;;;;;3.85;1.23;;;;;;;16.19;68.48;101464.69;4938965;28;20051;-84
2022/07/15 06:41:44;;;;;;;4.57;1.38;;;;;;;16.36;68.10;101469.63;4939591;28;20051;-85
2022/07/15 06:44:11;;;;;;;1.70;1.05;;;;;;;16.47;67.91;101472.94;4938177;28;20047;-85
2022/07/15 06:46:37;;;;;;;3.22;1.00;;;;;;;16.54;66.87;101463.13;4921410;28;20051;-84
2022/07/15 06:49:04;;;;;;;3.97;1.13;;;;;;;16.58;66.65;101463.94;4928356;28;20051;-86
2022/07/15 06:51:31;;;;;;;6.35;1.15;;;;;;;16.74;65.18;101468.00;4915020;28;20109;-86
2022/07/15 06:53:58;;;;;;;6.38;1.45;;;;;;;16.83;64.69;101466.91;4912000;29;20066;-84
2022/07/15 06:56:25;;;;;;;7.22;1.55;;;;;;;16.87;63.76;101469.47;4930734;29;20047;-85
2022/07/15 06:58:51;;;;;;;6.55;2.45;;;;;;;16.87;62.92;101466.81;4911677;29;20089;-85
2022/07/15 07:01:18;;;;;;;9.43;3.50;;;;;;;16.91;63.50;101469.41;4927441;28;20058;-87
2022/07/15 07:03:47;;;;;;;6.70;2.67;;;;;;;16.96;62.76;101473.72;4909232;29;20047;-85
2022/07/15 07:06:16;;;;;;;8.27;3.58;;;;;;;16.97;63.04;101467.53;4928904;29;20481;-83
2022/07/15 07:08:43;;;;;;;5.75;1.75;;;;;;;17.01;62.82;101473.59;4927253;29;20054;-84
2022/07/15 07:11:14;;;;;;;9.38;1.40;;;;;;;17.08;62.27;101474.31;4912886;29;20055;-83
2022/07/15 07:13:41;;;;;;;5.68;0.90;;;;;;;17.06;62.46;101469.06;4926068;29;20054;-84
2022/07/15 07:16:08;;;;;;;5.07;1.00;;;;;;;17.15;62.70;101466.19;4910766;29;20114;-86
2022/07/15 07:18:35;;;;;;;2.75;1.27;;;;;;;17.22;62.69;101474.00;4911111;29;20454;-84
2022/07/15 07:21:02;;;;;;;7.60;1.00;;;;;;;17.31;62.30;101474.66;4925666;29;20071;-84
2022/07/15 07:23:33;;;;;;;5.57;0.98;;;;;;;17.39;61.49;101470.97;4924867;29;20119;-84
2022/07/15 07:26:00;;;;;;;5.93;1.08;;;;;;;17.46;60.48;101470.78;4911117;29;20134;-85
2022/07/15 07:28:27;;;;;;;1.55;1.00;;;;;;;17.60;59.60;101474.84;4915358;29;20054;-85
2022/07/15 07:30:54;;;;;;;2.80;1.13;;;;;;;17.70;59.43;101476.34;4932504;29;20444;-85
2022/07/15 07:33:23;;;;;;;2.28;0.70;;;;;;;17.81;58.17;101469.00;4909911;29;20052;-84
2022/07/15 07:35:50;;;;;;;3.97;1.05;;;;;;;17.92;57.05;101468.72;4924510;29;20044;-84
2022/07/15 07:38:17;;;;;;;4.95;1.02;;;;;;;17.89;56.49;101460.84;4926348;29;20043;-86
2022/07/15 07:40:47;;;;;;;3.80;0.45;;;;;;;17.91;56.53;101476.69;4910503;29;20464;-86
2022/07/15 07:43:18;;;;;;;7.05;0.60;;;;;;;18.07;55.54;101471.88;4928533;29;20499;-85
2022/07/15 07:45:50;;;;;;;4.70;0.65;;;;;;;18.23;54.20;101461.75;4930859;29;20610;-84
2022/07/15 07:48:17;;;;;;;2.92;0.75;;;;;;;18.37;53.67;101461.34;4913934;29;20150;-84
2022/07/15 07:50:45;;;;;;;3.05;1.10;;;;;;;18.51;52.88;101469.75;4929142;29;20036;-85
2022/07/15 07:53:12;;;;;;;4.20;0.70;;;;;;;18.74;52.43;101460.28;4914564;29;20064;-87
2022/07/15 07:55:39;;;;;;;1.98;1.15;;;;;;;18.91;51.97;101455.34;4912803;29;20094;-85
2022/07/15 07:58:06;;;;;;;1.80;0.50;;;;;;;19.00;51.23;101457.72;4927183;29;20052;-86
2022/07/15 08:00:35;;;;;;;1.17;0.60;;;;;;;18.97;51.33;101454.31;4928334;29;20423;-84
2022/07/15 08:03:04;;;;;;;2.85;0.75;;;;;;;19.25;50.35;101458.72;4929792;29;20142;-83
2022/07/15 08:05:31;;;;;;;3.60;0.63;;;;;;;19.58;49.22;101451.44;4926775;29;20058;-84
2022/07/15 08:08:20;;;;;;;4.28;0.32;;;;;;;20.16;47.76;101445.00;4927464;29;20059;-86
2022/07/15 08:10:51;;;;;;;3.40;0.80;;;;;;;21.38;45.71;101450.97;4913016;29;20048;-87
2022/07/15 08:13:22;;;;;;;3.45;0.60;;;;;;;22.06;43.39;101444.53;4930305;28;20139;-84
2022/07/15 08:15:51;;;;;;;1.98;0.57;;;;;;;21.75;43.66;101454.75;4931937;29;20047;-83
2022/07/15 08:18:18;;;;;;;1.98;0.40;;;;;;;20.88;43.65;101456.53;4918015;29;20130;-85
2022/07/15 08:20:45;;;;;;;4.28;0.55;;;;;;;19.95;45.94;101463.47;4916967;29;20039;-83
2022/07/15 08:23:14;;;;;;;0.68;0.40;;;;;;;19.37;46.98;101457.44;4912715;29;20043;-82
2022/07/15 08:25:40;;;;;;;2.25;0.50;;;;;;;18.87;48.43;101464.28;4911820;29;20052;-83
2022/07/15 08:28:11;;;;;;;1.25;0.60;;;;;;;18.50;49.43;101468.91;4923033;29;20039;-85
2022/07/15 08:30:37;;;;;;;2.80;0.68;;;;;;;18.32;49.43;101462.34;4924608;29;20075;-84
2022/07/15 08:33:06;;;;;;;1.50;0.45;;;;;;;18.35;49.09;101456.09;4930759;29;20147;-84
2022/07/15 08:35:34;;;;;;;6.55;0.80;;;;;;;18.73;48.36;101467.34;4938276;29;20051;-84
2022/07/15 08:38:18;;;;;;;0.95;0.50;;;;;;;20.18;45.95;101456.47;4928017;29;20082;-87
2022/07/15 08:40:45;;;;;;;1.95;0.43;;;;;;;21.74;42.08;101453.00;4926235;29;20609;-84
2022/07/15 08:43:13;;;;;;;2.25;0.20;;;;;;;21.86;40.31;101450.75;4922979;29;20399;-83
2022/07/15 08:45:42;;;;;;;2.30;0.22;;;;;;;21.32;41.55;101456.53;4925064;29;20468;-85
2022/07/15 08:48:09;;;;;;;0.43;0.43;;;;;;;20.63;42.55;101452.13;4920010;29;20055;-85
2022/07/15 08:50:37;;;;;;;1.05;0.20;;;;;;;19.97;43.46;101458.09;4936291;28;20174;-83
2022/07/15 08:53:04;;;;;;;2.17;0.43;;;;;;;19.49;44.55;101449.94;4952365;28;20047;-83
2022/07/15 08:55:32;;;;;;;2.92;0.65;;;;;;;19.20;45.37;101458.00;4917790;29;20128;-82
2022/07/15 08:57:59;;;;;;;3.38;0.30;;;;;;;19.00;45.91;101470.13;4919830;29;20155;-84
2022/07/15 09:00:29;;;;;;;3.20;0.40;;;;;;;18.83;46.39;101471.47;4937245;29;20116;-84
2022/07/15 09:03:02;;;;;;;0.38;0.38;;;;;;;18.86;46.47;101478.47;4926146;29;20110;-85
2022/07/15 09:05:36;;;;;;;1.15;0.40;;;;;;;19.11;46.28;101483.94;4941700;29;20063;-84
2022/07/15 09:08:13;;;;;;;0.98;0.40;;;;;;;19.48;45.75;101469.44;4925070;29;20050;-84
2022/07/15 09:10:57;;;;;;;0.68;0.40;;;;;;;19.96;44.92;101469.66;4925471;29;20039;-84
2022/07/15 09:13:47;;;;;;;2.25;0.60;;;;;;;20.17;44.11;101473.34;4926686;29;20063;-85
2022/07/15 09:16:24;;;;;;;1.25;0.30;;;;;;;19.92;44.28;101474.22;4943616;29;20051;-84
2022/07/15 09:18:53;;;;;;;4.05;0.68;;;;;;;19.56;45.05;101476.31;4925096;29;20052;-84
2022/07/15 09:21:27;;;;;;;0.55;0.22;;;;;;;19.21;45.46;101480.97;4923929;29;20055;-84
2022/07/15 09:24:20;;;;;;;1.15;0.60;;;;;;;18.80;46.41;101476.88;4936816;28;20415;-85
2022/07/15 09:26:53;;;;;;;1.53;0.50;;;;;;;18.43;47.61;101483.25;4922003;29;20075;-83
2022/07/15 09:36:01;;;;;;;1.25;0.38;;;;;;;18.02;48.54;101488.78;4934507;29;20043;-86
2022/07/15 09:38:03;;;;;;;0.60;0.50;;;;;;;18.17;48.80;101490.16;4939431;29;20137;-85
2022/07/15 09:40:48;;;;;;;3.22;0.35;;;;;;;18.42;48.25;101488.59;4939357;29;20043;-83
2022/07/15 09:43:15;;;;;;;4.28;0.70;;;;;;;18.75;47.46;101494.72;4951623;28;20048;-84
2022/07/15 09:45:42;;;;;;;2.17;0.50;;;;;;;19.15;46.74;101496.19;4939287;29;20039;-85
2022/07/15 09:48:13;;;;;;;5.53;0.88;;;;;;;19.48;46.05;101488.03;4954038;28;20051;-84
2022/07/15 09:50:48;;;;;;;1.50;0.32;;;;;;;19.59;45.54;101486.81;4923669;29;20045;-84
2022/07/15 09:53:16;;;;;;;1.83;0.63;;;;;;;19.49;45.47;101487.13;4938869;29;20067;-84
2022/07/15 09:55:54;;;;;;;2.72;0.30;;;;;;;19.36;45.50;101490.22;4939673;29;20062;-86
2022/07/15 09:58:32;;;;;;;0.90;0.30;;;;;;;19.15;46.05;101497.94;4933942;29;20153;-84
2022/07/15 10:01:22;;;;;;;2.58;0.47;;;;;;;18.82;46.48;101493.59;4943496;29;20050;-85
2022/07/15 10:03:52;;;;;;;0.90;0.30;;;;;;;18.58;47.18;101502.31;4926684;29;20047;-84
2022/07/15 10:06:20;;;;;;;2.47;0.60;;;;;;;18.39;47.36;101496.66;4924113;29;20085;-84
2022/07/15 10:08:49;;;;;;;4.10;0.88;;;;;;;18.25;48.03;101507.63;4923010;29;20126;-85
2022/07/15 10:11:18;;;;;;;1.67;0.38;;;;;;;18.16;48.26;101509.63;4937922;29;20071;-83
2022/07/15 10:14:11;;;;;;;2.60;0.20;;;;;;;18.06;48.85;101509.91;4925601;29;20154;-82
2022/07/15 10:17:32;;;;;;;2.33;0.40;;;;;;;17.98;49.02;101505.69;4944875;29;20118;-84
2022/07/15 10:20:42;;;;;;;6.03;0.60;;;;;;;17.93;49.30;101512.00;4938444;29;20050;-86
2022/07/15 10:23:42;;;;;;;2.45;0.63;;;;;;;18.00;49.48;101510.94;4935390;29;20753;-84
2022/07/15 10:26:34;;;;;;;1.45;0.22;;;;;;;18.20;48.81;101510.41;4954485;28;20720;-84
2022/07/15 10:29:16;;;;;;;6.05;0.60;;;;;;;18.33;48.79;101500.34;4935962;29;20059;-83
2022/07/15 10:32:05;;;;;;;3.72;0.32;;;;;;;18.54;48.46;101506.81;4929799;29;20275;-83
2022/07/15 10:34:37;;;;;;;2.28;0.40;;;;;;;18.84;48.07;101498.88;4918365;29;20050;-85
2022/07/15 10:37:23;;;;;;;2.05;0.40;;;;;;;19.25;47.13;101491.44;4927215;29;20276;-84
2022/07/15 10:40:06;;;;;;;1.27;0.65;;;;;;;19.67;46.29;101498.03;4936582;29;20047;-85
2022/07/15 10:43:10;;;;;;;0.93;0.40;;;;;;;20.28;45.20;101494.22;4936081;28;20075;-85
2022/07/15 10:46:18;;;;;;;1.00;0.60;;;;;;;21.09;43.61;101492.97;4923942;29;20319;-85
2022/07/15 10:49:06;;;;;;;1.15;0.43;;;;;;;21.94;42.16;101488.59;4947544;29;20147;-90
2022/07/15 10:51:57;;;;;;;0.20;0.20;;;;;;;22.59;39.86;101483.94;4953801;28;20302;-85
2022/07/15 10:54:27;;;;;;;2.10;0.50;;;;;;;23.00;39.77;101479.38;4941598;29;20043;-83
2022/07/15 10:56:56;;;;;;;2.83;0.60;;;;;;;23.23;38.89;101479.19;4927801;29;20077;-85
2022/07/15 10:59:26;;;;;;;0.35;0.30;;;;;;;23.25;38.34;101484.44;4914788;29;20047;-83
2022/07/15 11:02:06;;;;;;;3.25;0.65;;;;;;;23.80;38.02;101478.09;4927868;29;20082;-88
2022/07/15 11:04:35;;;;;;;2.13;0.38;;;;;;;24.33;36.37;101472.72;4920067;29;20822;-83
2022/07/15 11:07:09;;;;;;;1.77;0.40;;;;;;;24.35;35.86;101476.16;4921621;29;20111;-87
2022/07/15 11:09:57;;;;;;;1.70;0.38;;;;;;;24.60;35.00;101473.00;4929967;29;20060;-83
2022/07/15 11:12:34;;;;;;;1.40;0.25;;;;;;;24.46;34.91;101479.13;4944359;29;20859;-86
2022/07/15 11:15:24;;;;;;;1.38;0.20;;;;;;;24.17;35.83;101467.31;4943004;29;20031;-87
2022/07/15 11:17:59;;;;;;;2.27;0.40;;;;;;;23.49;36.81;101474.31;4951120;28;20094;-84
2022/07/15 11:20:39;;;;;;;3.45;0.38;;;;;;;22.70;38.90;101472.75;4908187;29;20291;-85
2022/07/15 11:23:09;;;;;;;4.10;0.90;;;;;;;22.22;39.19;101474.91;4926035;29;20084;-85
2022/07/15 11:25:42;;;;;;;1.40;0.28;;;;;;;21.63;40.22;101474.78;4909102;29;20062;-86
2022/07/15 11:28:17;;;;;;;3.00;0.30;;;;;;;21.13;41.84;101467.94;4933274;29;20055;-86
2022/07/15 11:30:54;;;;;;;3.95;1.00;;;;;;;20.79;42.93;101471.94;4933217;29;20047;-82
2022/07/15 11:33:57;;;;;;;0.82;0.30;;;;;;;20.66;42.80;101465.31;4951051;28;20047;-84
2022/07/15 11:36:27;;;;;;;1.33;0.60;;;;;;;22.08;40.65;101464.84;4915921;29;20079;-83
2022/07/15 11:38:58;;;;;;;1.48;0.52;;;;;;;23.06;39.02;101460.38;4935362;29;20067;-84
2022/07/15 11:44:35;;;;;;;0.98;0.52;;;;;;;23.68;37.30;101449.34;4898680;29;20042;-84
2022/07/15 11:47:05;;;;;;;0.77;0.20;;;;;;;24.34;36.60;101443.22;4896754;29;20071;-84
2022/07/15 11:49:39;;;;;;;1.25;0.30;;;;;;;25.56;34.78;101436.31;4899703;29;20055;-84
2022/07/15 11:52:36;;;;;;;2.03;0.40;;;;;;;27.59;31.62;101427.97;4929596;28;20051;-86
2022/07/15 11:55:11;;;;;;;1.50;0.30;;;;;;;28.81;28.71;101428.34;4947713;28;20054;-88